Norfolk, Virginia
Traffic Map
Current Weather Conditions
Norfolk, Virginia
Clear
Clear

Feels Like: 3°
Wind Chill: Ceiling: Unl
Heat Index: Visibility: 10mi
Dew Point: Wind: 0mph
Humidity: 89% Direction: ° ()
Pressure: 30.15in Gusts: 0mph
Raw Report DataKORF 180151Z 00000KT 10SM CLR 03/01 A3015 RMK AO2 SLP207 T00280011
Traffic Incident Summary
Active as of:
Severity:
Category:
InformationThere was an issue retrieving the traffic information for this location. Please try a different location or try again shortly.
Advertisements